Darras Hall, United Kingdom
Current Conditions -  °F | °C
As of 8:50 AM on Wednesday 28 Jan 2015 (Local Time) from EGNT Reporting Station
Light Rain Light Rain  
Wind Chill: 31°   Ceiling: 3000
Heat Index: 41°   Visibility: 6mi
Dew Point: 39°   Wind: 22mph
Humidity: 93%   Direction: 260°W
Pressure: 29.21"   Gusts: NA
Location:  55.04°N, 1.76°W
Report Text: EGNT 280850Z 26019KT 9999 -RA SCT018 BKN030 05/04 Q0989 RERA
Loading
Personal Weather Stations






























Interactive Weather Map New forecast layout! Learn more

10-Day Weather Forecast

Advertisements
Track Severe Weather on mobile